Time;durP1;ratioP1;P1;durP2;ratioP2;P2;SDS_P1;SDS_P2;PMS_P1;PMS_P2;Temp;Humidity;BMP_temperature;BMP_pressure;BME280_temperature;BME280_humidity;BME280_pressure;Samples;Min_cycle;Max_cycle;Signal;HPM_P1;HPM_P2
2023/12/10 00:00:06;;;;;;;88.53;82.78;;;;;;;9.63;69.67;99762.59;5039884;28;20040;-79
2023/12/10 00:02:32;;;;;;;80.97;76.47;;;;;;;9.63;70.08;99773.38;5028290;28;20068;-81
2023/12/10 00:04:57;;;;;;;83.13;79.30;;;;;;;9.63;69.66;99771.47;5047427;28;20087;-78
2023/12/10 00:07:23;;;;;;;84.20;79.22;;;;;;;9.64;69.73;99767.69;5015144;28;20150;-75
2023/12/10 00:09:48;;;;;;;86.28;81.78;;;;;;;9.63;69.56;99776.06;5008153;28;20061;-75
2023/12/10 00:12:13;;;;;;;85.65;79.78;;;;;;;9.62;69.41;99786.00;5020104;28;20435;-75
2023/12/10 00:14:39;;;;;;;82.03;78.20;;;;;;;9.61;69.59;99786.28;5040132;28;20135;-75
2023/12/10 00:17:04;;;;;;;85.15;81.03;;;;;;;9.61;69.81;99797.06;5036533;28;20123;-75
2023/12/10 00:19:31;;;;;;;84.78;79.80;;;;;;;9.59;69.51;99802.72;5033793;28;20046;-75
2023/12/10 00:21:57;;;;;;;79.78;76.00;;;;;;;9.58;69.70;99795.72;5033654;28;20064;-77
2023/12/10 00:24:22;;;;;;;83.97;79.88;;;;;;;9.61;69.83;99802.47;5046303;28;20457;-75
2023/12/10 00:26:48;;;;;;;84.10;80.22;;;;;;;9.62;69.85;99799.50;5035083;28;20421;-74
2023/12/10 00:29:13;;;;;;;88.03;83.95;;;;;;;9.63;69.55;99795.75;5032830;28;20033;-76
2023/12/10 00:31:43;;;;;;;83.50;79.00;;;;;;;9.64;69.83;99791.97;5045989;28;20152;-76
2023/12/10 00:34:09;;;;;;;84.30;79.88;;;;;;;9.64;69.67;99804.63;5021195;28;20040;-75
2023/12/10 00:36:34;;;;;;;82.50;78.63;;;;;;;9.65;69.76;99796.31;5031782;28;20033;-77
2023/12/10 00:39:00;;;;;;;86.68;81.82;;;;;;;9.66;69.72;99816.78;5029401;28;20037;-75
2023/12/10 00:41:26;;;;;;;84.25;79.05;;;;;;;9.64;69.86;99810.84;5023492;28;20532;-78
2023/12/10 00:43:51;;;;;;;76.70;73.22;;;;;;;9.61;69.62;99805.97;5017735;28;20033;-77
2023/12/10 00:46:16;;;;;;;83.63;79.30;;;;;;;9.64;69.49;99818.13;5006502;28;20476;-76
2023/12/10 00:48:43;;;;;;;81.32;77.47;;;;;;;9.63;69.44;99813.81;5024347;28;20449;-76
2023/12/10 00:51:20;;;;;;;88.28;83.03;;;;;;;9.63;69.58;99819.22;5030705;28;20040;-75
2023/12/10 00:53:47;;;;;;;83.55;79.75;;;;;;;9.60;69.40;99814.31;5041016;28;20091;-76
2023/12/10 00:56:12;;;;;;;84.30;80.18;;;;;;;9.60;69.52;99833.19;5012850;28;20268;-75
2023/12/10 00:58:38;;;;;;;77.85;73.75;;;;;;;9.61;69.65;99824.03;5013177;28;20387;-76
2023/12/10 01:01:04;;;;;;;83.47;78.85;;;;;;;9.61;69.61;99829.44;5028578;28;20145;-76
2023/12/10 01:03:29;;;;;;;84.18;80.05;;;;;;;9.59;69.66;99826.97;5014750;28;20528;-76
2023/12/10 01:05:54;;;;;;;85.75;80.97;;;;;;;9.60;69.91;99827.78;5030275;28;20033;-77
2023/12/10 01:08:20;;;;;;;83.82;79.57;;;;;;;9.60;69.65;99834.00;5019902;28;20567;-76
2023/12/10 01:10:45;;;;;;;81.60;77.47;;;;;;;9.58;69.68;99832.66;5031549;28;20529;-77
2023/12/10 01:13:11;;;;;;;82.00;78.00;;;;;;;9.57;69.50;99834.50;5044340;28;20041;-76
2023/12/10 01:15:36;;;;;;;82.65;78.65;;;;;;;9.57;69.68;99833.69;5047049;28;20493;-76
2023/12/10 01:18:02;;;;;;;81.78;77.78;;;;;;;9.56;69.56;99846.38;5025524;28;20532;-77
2023/12/10 01:20:32;;;;;;;83.45;78.97;;;;;;;9.57;69.66;99847.19;5021840;28;20156;-77
2023/12/10 01:22:59;;;;;;;81.10;77.07;;;;;;;9.57;69.59;99856.06;5020377;28;20029;-77
2023/12/10 01:25:25;;;;;;;82.13;78.32;;;;;;;9.58;69.69;99868.50;5029723;28;20049;-75
2023/12/10 01:27:54;;;;;;;80.60;76.70;;;;;;;9.58;69.56;99868.50;5029187;28;20041;-75
2023/12/10 01:30:23;;;;;;;81.25;77.13;;;;;;;9.59;69.52;99861.22;5018755;28;20621;-76
2023/12/10 01:32:51;;;;;;;89.93;85.45;;;;;;;9.58;69.66;99865.00;5029071;28;20120;-76
2023/12/10 01:35:16;;;;;;;83.43;79.55;;;;;;;9.56;69.64;99870.66;5041095;28;20029;-76
2023/12/10 01:37:42;;;;;;;83.00;78.43;;;;;;;9.55;69.79;99874.41;5026970;28;20037;-76
2023/12/10 01:40:08;;;;;;;81.15;76.30;;;;;;;9.53;69.70;99869.28;5017995;28;20041;-80
2023/12/10 01:42:34;;;;;;;80.30;76.55;;;;;;;9.51;69.82;99884.09;5026301;28;20049;-76
2023/12/10 01:45:00;;;;;;;81.97;77.75;;;;;;;9.48;69.89;99885.41;5012021;28;20037;-77
2023/12/10 01:47:28;;;;;;;78.93;74.95;;;;;;;9.48;69.89;99893.50;5024176;28;20037;-78
2023/12/10 01:49:55;;;;;;;85.40;80.97;;;;;;;9.50;70.06;99902.16;5015675;28;20034;-75
2023/12/10 01:52:22;;;;;;;81.22;77.13;;;;;;;9.51;69.95;99895.66;5033540;28;20108;-76
2023/12/10 01:54:48;;;;;;;79.68;75.97;;;;;;;9.50;69.73;99904.84;5037325;28;20032;-77
2023/12/10 01:57:15;;;;;;;81.60;77.65;;;;;;;9.49;69.92;99880.81;5024544;28;20029;-79
2023/12/10 01:59:41;;;;;;;80.82;77.10;;;;;;;9.47;69.76;99894.53;5032789;28;20482;-77
2023/12/10 02:02:07;;;;;;;82.78;79.07;;;;;;;9.50;69.91;99890.56;5031225;28;20034;-78
2023/12/10 02:04:33;;;;;;;79.22;75.43;;;;;;;9.50;70.14;99887.84;5029937;28;20029;-76
2023/12/10 02:06:58;;;;;;;87.47;82.68;;;;;;;9.52;69.92;99885.69;5033564;28;20037;-76
2023/12/10 02:09:24;;;;;;;83.32;79.07;;;;;;;9.51;69.84;99890.28;5043977;28;20457;-75
2023/12/10 02:11:50;;;;;;;83.30;78.82;;;;;;;9.50;69.61;99902.16;5014153;28;20504;-76
2023/12/10 02:14:15;;;;;;;85.28;80.57;;;;;;;9.48;69.59;99898.88;5029624;28;20041;-75
2023/12/10 02:16:41;;;;;;;79.07;75.07;;;;;;;9.48;69.83;99901.59;5040107;28;20481;-75
2023/12/10 02:19:06;;;;;;;79.85;75.82;;;;;;;9.47;69.45;99894.53;5025812;28;20046;-76
2023/12/10 02:21:34;;;;;;;79.15;75.15;;;;;;;9.45;69.34;99912.88;5029766;28;20417;-76
2023/12/10 02:24:10;;;;;;;83.70;79.80;;;;;;;9.46;69.37;99909.09;5027214;28;20061;-75
2023/12/10 02:26:36;;;;;;;80.95;76.55;;;;;;;9.45;69.57;99930.91;5024015;28;20033;-75
2023/12/10 02:29:03;;;;;;;81.47;76.40;;;;;;;9.46;69.49;99911.81;5029099;28;20115;-78
2023/12/10 02:31:29;;;;;;;82.97;78.57;;;;;;;9.46;69.23;99922.59;5010726;28;20506;-77
2023/12/10 02:33:54;;;;;;;78.63;75.03;;;;;;;9.45;69.35;99929.06;5030018;28;20049;-75
2023/12/10 02:36:20;;;;;;;79.80;75.70;;;;;;;9.48;69.57;99938.50;5029524;28;20042;-75
2023/12/10 02:38:48;;;;;;;81.95;77.40;;;;;;;9.48;69.31;99931.22;5029054;28;20370;-76
2023/12/10 02:41:13;;;;;;;80.30;76.33;;;;;;;9.48;69.60;99920.44;5029644;28;20068;-78
2023/12/10 02:43:38;;;;;;;82.43;78.43;;;;;;;9.48;69.28;99941.22;5032113;28;20065;-75
2023/12/10 02:46:04;;;;;;;79.53;75.60;;;;;;;9.47;69.30;99934.97;5029152;28;20038;-76
2023/12/10 02:48:30;;;;;;;81.28;76.03;;;;;;;9.47;69.22;99937.69;5029153;28;20037;-76
2023/12/10 02:50:55;;;;;;;80.50;76.13;;;;;;;9.45;69.16;99926.34;5026530;28;20041;-78
2023/12/10 02:53:21;;;;;;;85.60;81.43;;;;;;;9.44;69.03;99942.78;5027209;28;20034;-77
2023/12/10 02:55:46;;;;;;;82.03;77.57;;;;;;;9.45;69.31;99937.16;5029840;28;20516;-76
2023/12/10 02:58:12;;;;;;;81.85;78.15;;;;;;;9.45;69.23;99957.88;5028318;28;20548;-76
2023/12/10 03:00:37;;;;;;;86.88;81.20;;;;;;;9.42;69.40;99961.88;5013719;28;20029;-76
2023/12/10 03:03:03;;;;;;;80.53;76.35;;;;;;;9.40;68.60;99947.88;5015266;28;20481;-76
2023/12/10 03:05:28;;;;;;;81.88;78.07;;;;;;;9.42;69.18;99953.81;5042879;28;20091;-76
2023/12/10 03:07:54;;;;;;;78.97;75.10;;;;;;;9.45;69.00;99971.34;5029848;28;20033;-77
2023/12/10 03:10:20;;;;;;;81.00;77.05;;;;;;;9.45;68.88;99987.53;5032453;28;20033;-75
2023/12/10 03:12:45;;;;;;;80.68;76.13;;;;;;;9.44;69.01;99965.16;5032023;28;20036;-75
2023/12/10 03:15:11;;;;;;;80.30;76.60;;;;;;;9.40;68.65;99963.22;5034296;28;20040;-76
2023/12/10 03:17:36;;;;;;;81.45;77.03;;;;;;;9.41;68.50;99997.19;5030929;28;20474;-76
2023/12/10 03:20:03;;;;;;;79.68;75.28;;;;;;;9.39;68.94;99967.78;5034757;28;20473;-76
2023/12/10 03:22:29;;;;;;;77.72;74.03;;;;;;;9.40;68.78;99995.56;5032280;28;20033;-76
2023/12/10 03:24:54;;;;;;;80.45;76.63;;;;;;;9.40;68.83;100003.63;5032482;28;20508;-76
2023/12/10 03:27:19;;;;;;;83.03;78.43;;;;;;;9.42;68.82;100018.50;5023230;28;20033;-75
2023/12/10 03:29:45;;;;;;;81.35;77.15;;;;;;;9.44;69.02;100010.16;5037638;28;20374;-76
2023/12/10 03:32:10;;;;;;;78.25;74.45;;;;;;;9.46;68.76;100014.22;5032092;28;20469;-75
2023/12/10 03:34:36;;;;;;;81.82;77.70;;;;;;;9.44;68.94;100026.34;5015458;28;20117;-75
2023/12/10 03:37:02;;;;;;;77.65;74.00;;;;;;;9.44;68.79;100037.94;5036898;28;20044;-76
2023/12/10 03:39:27;;;;;;;82.38;78.15;;;;;;;9.45;68.29;100047.66;5017030;28;20118;-76
2023/12/10 03:41:53;;;;;;;80.93;76.50;;;;;;;9.46;68.97;100041.19;5035483;28;20105;-77
2023/12/10 03:44:18;;;;;;;83.53;79.18;;;;;;;9.47;68.25;100031.22;5029039;28;20033;-77
2023/12/10 03:46:44;;;;;;;82.25;78.22;;;;;;;9.47;68.38;100028.53;4995160;28;20040;-75
2023/12/10 03:49:09;;;;;;;79.38;75.32;;;;;;;9.46;68.55;100041.19;5031008;28;20069;-76
2023/12/10 03:51:35;;;;;;;83.45;78.93;;;;;;;9.49;68.31;100034.47;5016561;28;20025;-75
2023/12/10 03:54:01;;;;;;;81.40;77.38;;;;;;;9.47;68.10;100050.91;5016083;28;20045;-77
2023/12/10 03:56:26;;;;;;;82.68;78.53;;;;;;;9.48;68.47;100039.06;5032702;28;20041;-77
2023/12/10 03:58:52;;;;;;;78.88;74.93;;;;;;;9.48;68.23;100036.38;5029850;28;20033;-75
2023/12/10 04:01:17;;;;;;;81.97;77.47;;;;;;;9.48;68.41;100035.56;5025514;28;20084;-75
2023/12/10 04:03:43;;;;;;;83.22;78.78;;;;;;;9.48;68.35;100038.25;5015915;28;20037;-76
2023/12/10 04:06:08;;;;;;;79.13;74.55;;;;;;;9.47;68.32;100042.00;5031654;28;20040;-74
2023/12/10 04:08:34;;;;;;;77.95;74.25;;;;;;;9.45;68.29;100054.91;5036328;28;20033;-74
2023/12/10 04:10:59;;;;;;;78.68;74.78;;;;;;;9.44;68.31;100037.13;5048098;28;20534;-75
2023/12/10 04:13:24;;;;;;;78.32;74.28;;;;;;;9.45;67.92;100058.44;5034270;28;20041;-75
2023/12/10 04:15:50;;;;;;;80.00;75.75;;;;;;;9.45;68.01;100058.44;5030474;28;20050;-75
2023/12/10 04:18:16;;;;;;;79.78;75.78;;;;;;;9.46;68.11;100078.94;5015302;28;20041;-75
2023/12/10 04:20:42;;;;;;;76.75;73.00;;;;;;;9.49;67.77;100061.44;5020168;28;20060;-76
2023/12/10 04:23:08;;;;;;;79.70;75.63;;;;;;;9.48;67.92;100057.94;5021168;28;20030;-75
2023/12/10 04:25:33;;;;;;;81.28;77.03;;;;;;;9.49;68.15;100069.53;5027505;28;20385;-77
2023/12/10 04:27:58;;;;;;;81.47;77.55;;;;;;;9.49;68.04;100086.50;4999242;28;20478;-75
2023/12/10 04:30:24;;;;;;;79.65;75.95;;;;;;;9.49;68.19;100077.63;5035206;28;20067;-76
2023/12/10 04:32:50;;;;;;;83.22;78.75;;;;;;;9.50;68.10;100073.88;5031480;28;20473;-74
2023/12/10 04:35:15;;;;;;;82.13;77.97;;;;;;;9.48;68.16;100095.69;5033260;28;20049;-75
2023/12/10 04:37:41;;;;;;;86.68;82.18;;;;;;;9.51;67.82;100111.34;5031530;28;20041;-75
2023/12/10 04:40:07;;;;;;;81.18;76.93;;;;;;;9.48;67.89;100105.66;5031041;28;20037;-74
2023/12/10 04:42:33;;;;;;;79.53;75.72;;;;;;;9.49;67.68;100101.88;5020017;28;20053;-75
2023/12/10 04:44:58;;;;;;;82.25;78.35;;;;;;;9.50;68.10;100100.84;5030790;28;20033;-74
2023/12/10 04:47:24;;;;;;;81.13;76.53;;;;;;;9.50;67.90;100107.03;5014145;28;20026;-74
2023/12/10 04:49:49;;;;;;;81.72;77.72;;;;;;;9.51;67.46;100126.72;5013340;28;20037;-77
2023/12/10 04:52:15;;;;;;;79.97;76.05;;;;;;;9.51;67.61;100127.53;5047348;28;20024;-77
2023/12/10 04:54:40;;;;;;;81.07;76.43;;;;;;;9.53;67.82;100132.69;5045808;28;20037;-77
2023/12/10 04:57:05;;;;;;;80.07;76.38;;;;;;;9.55;67.72;100138.63;5027061;28;20038;-76
2023/12/10 04:59:31;;;;;;;80.93;77.28;;;;;;;9.57;67.87;100141.06;5039277;28;20111;-76
2023/12/10 05:01:56;;;;;;;81.13;76.68;;;;;;;9.59;68.00;100130.84;5030733;28;20041;-75
2023/12/10 05:04:22;;;;;;;83.18;79.15;;;;;;;9.56;67.52;100137.56;5029079;28;20037;-75
2023/12/10 05:06:48;;;;;;;84.65;80.32;;;;;;;9.55;68.05;100138.63;5022780;28;20041;-75
2023/12/10 05:09:13;;;;;;;79.60;75.55;;;;;;;9.57;68.17;100146.47;5031063;28;20034;-75
2023/12/10 05:11:39;;;;;;;85.95;81.15;;;;;;;9.59;67.80;100161.31;5029846;28;20033;-75
2023/12/10 05:14:05;;;;;;;82.15;77.85;;;;;;;9.59;67.55;100163.22;5020347;28;20482;-75
2023/12/10 05:16:31;;;;;;;81.85;77.32;;;;;;;9.58;67.84;100159.69;5030679;28;20049;-75
2023/12/10 05:18:56;;;;;;;82.50;78.57;;;;;;;9.59;67.62;100171.28;5014036;28;20569;-75
2023/12/10 05:21:22;;;;;;;83.28;78.75;;;;;;;9.60;67.63;100164.81;5031428;28;20428;-75
2023/12/10 05:23:47;;;;;;;87.00;82.82;;;;;;;9.59;67.60;100171.28;5025310;28;20056;-75
2023/12/10 05:26:13;;;;;;;83.15;78.85;;;;;;;9.56;67.32;100199.56;5011546;28;20034;-77
2023/12/10 05:28:39;;;;;;;83.05;78.97;;;;;;;9.57;67.18;100190.41;5026482;28;20116;-76
2023/12/10 05:31:04;;;;;;;80.15;76.55;;;;;;;9.56;67.52;100199.56;5016499;28;20124;-77
2023/12/10 05:33:31;;;;;;;81.80;76.72;;;;;;;9.56;67.45;100212.25;5021034;28;20053;-75
2023/12/10 05:35:58;;;;;;;82.00;77.55;;;;;;;9.56;67.70;100215.75;5023986;28;20127;-75
2023/12/10 05:38:23;;;;;;;83.03;78.70;;;;;;;9.54;67.94;100234.88;5002373;28;20038;-75
2023/12/10 05:40:48;;;;;;;82.07;77.88;;;;;;;9.56;67.70;100241.91;5023650;28;20041;-74
2023/12/10 05:43:14;;;;;;;86.78;82.55;;;;;;;9.58;67.45;100240.59;5010894;28;21989;-75
2023/12/10 05:45:39;;;;;;;81.30;76.22;;;;;;;9.61;67.31;100241.97;5026895;28;20042;-74
2023/12/10 05:48:05;;;;;;;78.10;74.57;;;;;;;9.61;67.47;100253.56;5026539;28;20393;-75
2023/12/10 05:50:30;;;;;;;77.35;73.25;;;;;;;9.64;67.43;100253.06;5014631;28;20041;-75
2023/12/10 05:52:56;;;;;;;77.85;73.47;;;;;;;9.64;67.12;100252.25;5027053;28;20045;-75
2023/12/10 05:55:21;;;;;;;78.97;75.30;;;;;;;9.65;67.42;100261.97;5019192;28;20426;-74
2023/12/10 05:57:47;;;;;;;83.72;78.90;;;;;;;9.65;67.52;100264.66;5032773;28;20087;-74
2023/12/10 06:00:13;;;;;;;80.57;76.57;;;;;;;9.66;67.24;100247.44;5028389;28;20029;-75
2023/12/10 06:02:38;;;;;;;83.13;77.50;;;;;;;9.63;67.78;100266.81;5030018;28;20499;-74
2023/12/10 06:05:04;;;;;;;79.50;75.03;;;;;;;9.62;67.87;100276.75;5046047;28;20044;-75
2023/12/10 06:07:29;;;;;;;81.13;76.57;;;;;;;9.61;67.48;100274.34;5021233;28;20034;-75
2023/12/10 06:09:55;;;;;;;74.45;70.65;;;;;;;9.61;67.39;100271.63;5030908;28;20037;-75
2023/12/10 06:12:21;;;;;;;80.55;76.35;;;;;;;9.63;67.56;100280.31;5023712;28;20044;-76
2023/12/10 06:14:46;;;;;;;79.93;76.13;;;;;;;9.60;67.68;100281.63;5008329;28;20596;-74
2023/12/10 06:17:12;;;;;;;77.90;72.95;;;;;;;9.61;67.41;100288.63;5017499;28;20049;-75
2023/12/10 06:19:37;;;;;;;81.20;76.60;;;;;;;9.62;67.45;100305.63;5033002;28;20485;-74
2023/12/10 06:22:03;;;;;;;79.80;76.15;;;;;;;9.63;67.77;100297.28;5027141;28;20120;-74
2023/12/10 06:24:28;;;;;;;81.32;77.40;;;;;;;9.64;67.31;100312.41;5014640;28;20042;-74
2023/12/10 06:26:54;;;;;;;82.13;78.18;;;;;;;9.66;67.29;100328.34;5032070;28;20041;-75
2023/12/10 06:29:19;;;;;;;82.05;77.75;;;;;;;9.65;67.50;100314.06;5025788;28;20470;-75
2023/12/10 06:31:45;;;;;;;83.72;79.43;;;;;;;9.62;67.41;100328.00;5019627;28;20034;-74
2023/12/10 06:34:10;;;;;;;79.15;75.55;;;;;;;9.64;67.37;100330.47;5011571;28;20046;-75
2023/12/10 06:36:36;;;;;;;76.97;72.82;;;;;;;9.64;67.56;100333.16;5031089;28;20053;-74
2023/12/10 06:39:02;;;;;;;81.13;76.75;;;;;;;9.62;67.21;100335.28;5037370;28;20068;-74
2023/12/10 06:41:27;;;;;;;78.60;74.55;;;;;;;9.61;66.98;100330.97;5033046;28;20041;-75
2023/12/10 06:43:53;;;;;;;85.20;79.35;;;;;;;9.63;67.20;100350.41;5033132;28;20044;-75
2023/12/10 06:46:18;;;;;;;81.03;76.95;;;;;;;9.65;67.25;100362.59;5025198;28;20040;-75
2023/12/10 06:48:44;;;;;;;77.03;72.97;;;;;;;9.66;67.48;100350.72;5017550;28;20125;-74
2023/12/10 06:51:10;;;;;;;81.55;77.60;;;;;;;9.66;67.00;100358.81;5022862;28;20121;-74
2023/12/10 06:53:35;;;;;;;82.55;78.65;;;;;;;9.67;66.99;100362.31;5033549;28;20080;-74
2023/12/10 06:56:00;;;;;;;78.88;75.13;;;;;;;9.68;66.86;100375.56;5031517;28;20058;-75
2023/12/10 06:58:26;;;;;;;81.05;77.35;;;;;;;9.70;67.14;100367.22;5034744;28;20030;-74
2023/12/10 07:00:51;;;;;;;81.43;77.50;;;;;;;9.72;66.86;100392.88;5042404;28;20065;-74
2023/12/10 07:03:17;;;;;;;79.88;75.63;;;;;;;9.72;67.22;100387.50;5013967;28;20034;-74
2023/12/10 07:05:42;;;;;;;82.15;78.07;;;;;;;9.72;66.83;100383.97;5031516;28;20034;-75
2023/12/10 07:08:08;;;;;;;81.38;77.47;;;;;;;9.72;67.35;100381.28;5017215;28;20034;-75
2023/12/10 07:10:33;;;;;;;84.18;78.65;;;;;;;9.74;67.24;100371.88;5033117;28;20040;-74
2023/12/10 07:12:58;;;;;;;82.45;77.93;;;;;;;9.77;67.25;100394.84;4999441;28;20033;-74
2023/12/10 07:15:24;;;;;;;81.25;77.35;;;;;;;9.80;67.10;100390.84;5028895;28;20038;-75
2023/12/10 07:17:49;;;;;;;86.13;81.72;;;;;;;9.78;66.76;100396.50;5049247;28;20076;-74
2023/12/10 07:20:15;;;;;;;79.95;75.95;;;;;;;9.78;67.00;100409.16;5033989;28;20035;-75
2023/12/10 07:22:41;;;;;;;83.53;78.72;;;;;;;9.77;66.81;100410.22;5036723;28;20095;-74
2023/12/10 07:25:07;;;;;;;78.43;74.93;;;;;;;9.77;67.06;100424.50;5032578;28;20038;-74
2023/12/10 07:27:33;;;;;;;81.93;76.28;;;;;;;9.81;67.12;100431.06;5015198;28;20033;-75
2023/12/10 07:29:59;;;;;;;86.55;82.28;;;;;;;9.80;66.94;100432.13;5032466;28;20029;-75
2023/12/10 07:32:25;;;;;;;83.13;79.05;;;;;;;9.79;66.96;100440.47;5033283;28;20033;-75
2023/12/10 07:34:50;;;;;;;84.28;80.03;;;;;;;9.80;67.05;100444.78;5030730;28;20064;-75
2023/12/10 07:37:16;;;;;;;82.97;78.88;;;;;;;9.80;67.10;100445.59;5035320;28;20388;-74
2023/12/10 07:39:42;;;;;;;80.05;76.22;;;;;;;9.81;67.19;100449.13;5016895;28;20453;-75
2023/12/10 07:42:07;;;;;;;83.78;80.07;;;;;;;9.84;66.91;100454.03;5025806;28;20045;-74
2023/12/10 07:44:33;;;;;;;83.18;79.20;;;;;;;9.85;66.76;100452.97;5023679;28;20041;-74
2023/12/10 07:46:59;;;;;;;84.93;80.10;;;;;;;9.84;67.01;100457.56;5028776;28;20488;-74
2023/12/10 07:49:24;;;;;;;86.32;81.93;;;;;;;9.86;67.19;100455.44;5020875;28;20069;-74
2023/12/10 07:51:50;;;;;;;83.50;79.22;;;;;;;9.85;67.23;100453.81;5023243;28;20037;-75
2023/12/10 07:54:15;;;;;;;84.70;80.13;;;;;;;9.85;67.16;100452.97;5021963;28;20073;-74
2023/12/10 07:56:40;;;;;;;80.68;76.45;;;;;;;9.86;67.06;100470.81;5024948;28;20033;-75
2023/12/10 07:59:06;;;;;;;83.22;79.13;;;;;;;9.84;67.24;100473.72;5013671;28;20413;-74
2023/12/10 08:01:31;;;;;;;81.13;77.22;;;;;;;9.84;67.27;100470.22;5033168;28;20087;-74
2023/12/10 08:03:57;;;;;;;81.55;77.38;;;;;;;9.85;67.09;100479.94;5015614;28;20041;-75
2023/12/10 08:06:22;;;;;;;82.03;77.57;;;;;;;9.86;67.16;100478.91;5041404;28;20048;-74
2023/12/10 08:08:48;;;;;;;82.80;78.80;;;;;;;9.85;67.12;100493.44;5035898;28;20268;-75
2023/12/10 08:11:13;;;;;;;78.70;75.18;;;;;;;9.85;67.17;100488.88;5016052;28;20037;-74
2023/12/10 08:13:39;;;;;;;80.70;76.57;;;;;;;9.84;67.23;100492.63;5032499;28;20041;-74
2023/12/10 08:16:05;;;;;;;83.75;79.80;;;;;;;9.85;67.28;100498.81;5024243;28;20058;-75
2023/12/10 08:18:31;;;;;;;79.93;76.32;;;;;;;9.87;67.25;100510.19;5022420;28;20054;-75
2023/12/10 08:20:57;;;;;;;82.82;78.97;;;;;;;9.86;67.32;100514.78;5010017;28;20052;-76
2023/12/10 08:23:22;;;;;;;81.13;76.75;;;;;;;9.87;67.21;100518.28;4996117;28;20868;-75
2023/12/10 08:25:48;;;;;;;83.13;79.43;;;;;;;9.88;67.44;100531.56;5033131;28;20041;-75
2023/12/10 08:28:14;;;;;;;82.82;78.70;;;;;;;9.88;67.52;100536.94;5029006;28;20034;-74
2023/12/10 08:30:40;;;;;;;86.75;81.32;;;;;;;9.88;67.69;100539.63;5009889;28;20057;-74
2023/12/10 08:33:06;;;;;;;83.18;79.28;;;;;;;9.87;67.69;100532.59;5018158;28;20136;-75
2023/12/10 08:35:32;;;;;;;82.80;78.35;;;;;;;9.89;67.56;100546.66;4999639;28;20482;-74
2023/12/10 08:37:57;;;;;;;83.43;79.53;;;;;;;9.91;67.80;100547.25;5045248;28;20433;-76
2023/12/10 08:40:22;;;;;;;84.28;80.40;;;;;;;9.92;67.68;100548.88;5014220;28;20037;-75
2023/12/10 08:42:48;;;;;;;88.35;82.47;;;;;;;9.94;67.76;100557.53;5040685;28;20104;-75
2023/12/10 08:45:13;;;;;;;80.97;77.32;;;;;;;9.94;67.51;100546.75;5035350;28;20469;-75
2023/12/10 08:47:39;;;;;;;85.22;81.13;;;;;;;9.96;67.71;100541.94;5033329;28;20033;-76
2023/12/10 08:50:05;;;;;;;84.75;80.43;;;;;;;9.97;67.67;100553.53;5030620;28;20038;-76
2023/12/10 08:52:30;;;;;;;84.07;78.95;;;;;;;9.99;67.69;100550.63;5018925;28;20080;-77
2023/12/10 08:54:56;;;;;;;81.60;77.65;;;;;;;9.98;67.87;100536.31;5030703;28;20107;-75
2023/12/10 08:57:24;;;;;;;88.78;84.32;;;;;;;9.99;67.79;100546.03;5028462;28;20037;-76
2023/12/10 08:59:49;;;;;;;87.75;83.63;;;;;;;9.99;67.74;100545.22;5014238;28;20034;-74
2023/12/10 09:02:15;;;;;;;83.07;79.05;;;;;;;9.96;67.57;100552.72;5015247;28;20029;-75
2023/12/10 09:04:40;;;;;;;83.35;79.45;;;;;;;9.95;67.59;100548.41;5038792;28;20029;-75
2023/12/10 09:07:06;;;;;;;81.88;78.18;;;;;;;9.94;67.58;100554.84;5020709;28;20037;-74
2023/12/10 09:09:32;;;;;;;88.25;84.15;;;;;;;9.94;67.85;100562.94;5033373;28;20041;-74
2023/12/10 09:11:58;;;;;;;79.22;75.18;;;;;;;9.92;67.78;100567.75;5030195;28;20064;-72
2023/12/10 09:14:24;;;;;;;81.38;77.68;;;;;;;9.92;67.94;100562.34;5027765;28;20037;-74
2023/12/10 09:16:49;;;;;;;83.13;79.30;;;;;;;9.91;68.01;100558.03;5018639;28;20497;-74
2023/12/10 09:19:16;;;;;;;81.13;77.22;;;;;;;9.93;67.91;100571.28;5032166;28;20540;-74
2023/12/10 09:21:43;;;;;;;82.55;78.95;;;;;;;9.92;67.88;100565.06;5010802;28;20065;-73
2023/12/10 09:24:09;;;;;;;81.78;77.88;;;;;;;9.92;68.05;100575.03;5017749;28;20037;-74
2023/12/10 09:26:34;;;;;;;84.35;80.43;;;;;;;9.94;67.86;100573.72;5019628;28;20083;-74
2023/12/10 09:29:00;;;;;;;80.57;76.25;;;;;;;9.94;67.91;100568.34;5033134;28;20452;-74
2023/12/10 09:31:25;;;;;;;85.32;80.78;;;;;;;9.94;67.82;100579.13;5036877;28;20465;-73
2023/12/10 09:33:51;;;;;;;82.25;78.38;;;;;;;9.93;67.98;100585.59;5031244;28;20446;-74
2023/12/10 09:36:16;;;;;;;81.43;77.53;;;;;;;9.93;67.99;100588.28;5031524;28;20095;-74
2023/12/10 09:38:42;;;;;;;81.30;77.65;;;;;;;9.94;67.84;100584.53;5016052;28;20397;-74
2023/12/10 09:41:07;;;;;;;82.38;78.22;;;;;;;9.97;68.12;100581.34;5029697;28;20485;-73
2023/12/10 09:43:33;;;;;;;81.03;77.10;;;;;;;9.99;67.96;100586.50;5027049;28;20099;-73
2023/12/10 09:46:00;;;;;;;82.53;77.45;;;;;;;10.00;67.86;100576.53;5037076;28;20532;-73
2023/12/10 09:48:26;;;;;;;84.03;79.90;;;;;;;10.01;67.94;100578.19;5028427;28;20361;-74
2023/12/10 09:50:53;;;;;;;83.10;79.10;;;;;;;10.02;67.99;100579.81;5020917;28;20722;-72
2023/12/10 09:53:21;;;;;;;80.50;75.95;;;;;;;10.01;67.63;100572.78;5022104;28;20108;-73
2023/12/10 09:55:46;;;;;;;85.75;81.72;;;;;;;10.04;68.23;100583.09;5022755;28;20092;-73
2023/12/10 09:58:12;;;;;;;86.85;82.15;;;;;;;10.03;68.00;100594.91;5011925;28;20042;-76
2023/12/10 10:00:37;;;;;;;84.65;80.60;;;;;;;10.03;68.29;100589.53;5028183;28;20034;-75
2023/12/10 10:03:03;;;;;;;88.18;83.20;;;;;;;10.04;68.13;100586.59;5019021;28;20073;-74
2023/12/10 10:05:29;;;;;;;82.47;78.63;;;;;;;10.05;68.19;100580.13;5026411;28;20117;-74
2023/12/10 10:07:55;;;;;;;83.85;80.22;;;;;;;10.06;68.21;100578.28;5020491;28;20065;-72
2023/12/10 10:10:22;;;;;;;84.75;81.00;;;;;;;10.07;67.96;100574.50;5037354;28;20137;-73
2023/12/10 10:12:48;;;;;;;84.25;80.07;;;;;;;10.08;68.12;100578.81;5037588;28;20040;-73
2023/12/10 10:15:13;;;;;;;86.45;82.55;;;;;;;10.08;68.08;100554.53;5024487;28;20071;-73
2023/12/10 10:17:39;;;;;;;84.85;80.32;;;;;;;10.09;68.20;100557.00;5040083;28;20124;-73
2023/12/10 10:20:05;;;;;;;85.63;81.03;;;;;;;10.10;68.25;100547.81;5038262;28;20039;-74
2023/12/10 10:22:31;;;;;;;83.15;79.05;;;;;;;10.12;67.96;100545.72;5029049;28;20041;-74
2023/12/10 10:24:56;;;;;;;85.45;81.45;;;;;;;10.11;67.96;100541.38;5028360;28;20358;-73
2023/12/10 10:27:23;;;;;;;85.50;80.60;;;;;;;10.10;68.09;100553.22;5027573;28;20046;-74
2023/12/10 10:29:53;;;;;;;86.45;82.65;;;;;;;10.11;67.91;100557.56;5022121;28;20166;-72
2023/12/10 10:32:19;;;;;;;82.57;78.57;;;;;;;10.13;67.79;100549.22;5012251;28;20096;-72
2023/12/10 10:34:46;;;;;;;84.57;80.57;;;;;;;10.14;68.17;100558.97;5017768;28;20040;-73
2023/12/10 10:37:12;;;;;;;84.93;80.82;;;;;;;10.14;68.21;100562.47;5028400;28;20431;-73
2023/12/10 10:39:38;;;;;;;82.93;78.97;;;;;;;10.17;68.28;100564.69;5022243;28;20107;-71
2023/12/10 10:42:08;;;;;;;87.07;82.97;;;;;;;10.19;67.96;100564.44;5045426;28;20420;-73
2023/12/10 10:44:37;;;;;;;83.60;79.72;;;;;;;10.18;68.04;100557.44;5033115;28;20057;-73
2023/12/10 10:47:05;;;;;;;86.18;82.18;;;;;;;10.18;67.95;100571.75;5035712;28;20037;-72
2023/12/10 10:49:33;;;;;;;84.10;80.35;;;;;;;10.17;68.13;100561.97;5022981;28;20294;-71
2023/12/10 10:52:02;;;;;;;87.05;82.43;;;;;;;10.13;67.97;100563.56;5020388;28;20123;-72
2023/12/10 10:54:28;;;;;;;;;;;;;;;10.13;68.05;100562.72;5022497;28;20117;-72
2023/12/10 10:56:53;;;;;;;78.68;75.07;;;;;;;10.13;68.26;100560.84;5018220;28;20003;-72
2023/12/10 10:59:30;;;;;;;82.70;77.90;;;;;;;10.16;68.23;100568.47;5030008;28;20038;-73
2023/12/10 11:02:01;;;;;;;83.20;79.30;;;;;;;10.17;68.20;100570.06;5021462;28;20116;-73
2023/12/10 11:04:45;;;;;;;82.93;78.93;;;;;;;10.19;68.27;100553.66;5018986;28;20033;-73
2023/12/10 11:07:10;;;;;;;83.13;79.20;;;;;;;10.20;68.25;100547.19;5027170;28;20538;-73
2023/12/10 11:10:02;;;;;;;86.00;82.10;;;;;;;10.20;68.13;100547.19;4992857;28;20029;-74
2023/12/10 11:12:40;;;;;;;85.25;81.15;;;;;;;10.18;68.35;100542.03;5030866;28;20136;-73